Jericho, Jordan

9:58 AM EEST on September 20, 2014 (GMT +0300)
Ben Gurion | Change Station
CLOSE
Current Station
Airport
Location: Tel Aviv,
Elevation: 161 ft
Nearby Weather Stations

Elev 161 ft 32.01 °N, 34.89 °E | Updated 8 minutes ago

Mostly Cloudy
Mostly Cloudy
82 °F
Feels Like 85 °F
N
4
Wind Variable Wind from Variable

Today
High -- | Low -- °F
--% Chance of Precip.
Yesterday
High -- | Low -- °F
Precip. -- in
6:24 AM 6:37 PM
Waning Crescent, 14% visible
Pressure 29.95 in
Visibility 6.2 miles
Clouds Mostly Cloudy 3000 ft
Heat Index 85 °F
Dew Point 66 °F
Humidity 58%
Rainfall 0.00 in
Snow Depth Not available.
UV 4 out of 12
Pollen Not available.
Air Quality Not available.
Flu Activity Not available.
METAR LLBG 200650Z VRB03KT 9999 BKN030 28/19 Q1014 NOSIG

More Conditions Fewer Conditions

Pressure 29.95 in
Visibility 6.2 miles
Clouds Mostly Cloudy 3000 ft
Heat Index 85 °F
Dew Point 66 °F
Humidity 58%
Rainfall 0.00 in
Snow Depth Not available.
UV 4 out of 12
Pollen Not available.
Air Quality Not available.
Flu Activity Not available.
METAR LLBG 200650Z VRB03KT 9999 BKN030 28/19 Q1014 NOSIG

More Conditions Fewer Conditions

10-Day Weather Forecast

Almanac

Astronomy

Sep. 20, 2014 Rise Set
Actual Time 6:24 AM EEST 6:37 PM EEST
Civil Twilight 6:00 AM EEST 7:02 PM EEST
Nautical Twilight 5:31 AM EEST 7:30 PM EEST
Astronomical Twilight 5:03 AM EEST 7:59 PM EEST
Moon 2:55 AM EEST 4:20 PM EEST
Length of Visible Light 13h 01m
Length of Day
12h 12m
Tomorrow will be 1m 56s shorter.
Waning Crescent, 14% of the Moon is Illuminated
Today
Waning Crescent
Sep 24
New
Oct 1
First Quarter
Oct 8
Full
Oct 15
Last Quarter

Yesterday's Extremes

Country Highs Country Lows

Community

WunderPhotos

Upload Photos

1,754,779 photos uploaded!

WunderBlogs® & News

Nearby

Snow Depth

Not available.

Earthquake Activity

City Distance Mag. Time & Date
No recent earthquake activity has been reported nearby.
Minimum magnitude displayed is 2.5.

Coastal Water Temperatures

Place Temperature
No Stations Reporting

Nearby Weather Stations